Angus, NM

11:27 AM MST on November 26, 2014 (GMT -0700)
Sierra Blanca Regional | Change Station
CLOSE
Current Station
Airport
Location: Ruidoso,
Elevation: 6811 ft
Nearby Weather Stations

Elev 6811 ft 33.46 °N, 105.53 °W | Updated 12 minutes ago

Clear
Clear
50 °F
Feels Like 50 °F
N
17
Wind Variable Wind from NW
Gusts 22 mph

Today
High -- | Low -- °F
--% Chance of Precip.
Yesterday
High -- | Low -- °F
Precip. -- in
6:44 AM 4:54 PM
Waxing Crescent, 21% visible
Pressure 30.37 in
Visibility 10.0 miles
Clouds Clear
Dew Point 19 °F
Humidity 30%
Rainfall 0.00 in
Snow Depth Not available.
UV 4 out of 12
Pollen 4.40 out of 12
Air Quality Not available.
Flu Activity Not available.
METAR KSRR 261815Z AUTO 31015G19KT 10SM CLR 10/M07 A3037 RMK AO2

More Conditions Fewer Conditions

Pressure 30.37 in
Visibility 10.0 miles
Clouds Clear
Dew Point 19 °F
Humidity 30%
Rainfall 0.00 in
Snow Depth Not available.
UV 4 out of 12
Pollen 4.40 out of 12
Air Quality Not available.
Flu Activity Not available.
METAR KSRR 261815Z AUTO 31015G19KT 10SM CLR 10/M07 A3037 RMK AO2

More Conditions Fewer Conditions

10-Day Weather Forecast

Almanac

Astronomy

Nov. 26, 2014 Rise Set
Actual Time
Civil Twilight
Nautical Twilight
Astronomical Twilight
Moon
Length of Visible Light
Length of Day
Tomorrow will be .
, % of the Moon is Illuminated

Today's Extremes

State Highs State Lows

Community

WunderPhotos

Upload Photos

1,773,822 photos uploaded!

WunderBlogs® & News

Nearby

Air Quality

  Air Quality AQ Index Pollutant
Not available.

Snow Depth

Station Depth Elevation

Earthquake Activity

City Distance Mag. Time & Date
Minimum magnitude displayed is 2.5.

Coastal Water Temperatures

Place Temperature

Nearby Weather Stations